createdAt,value
2019-01-13T00:00:50.445Z,13.03
2019-01-13T00:03:30.586Z,14.77
2019-01-13T00:06:10.745Z,12.43
2019-01-13T00:11:37.886Z,14.20
2019-01-13T00:14:18.403Z,13.33
2019-01-13T00:16:58.331Z,14.43
2019-01-13T00:22:30.860Z,13.97
2019-01-13T00:25:11.482Z,13.57
2019-01-13T00:27:52.780Z,13.87
2019-01-13T00:30:20.570Z,13.03
2019-01-13T00:33:07.655Z,12.53
2019-01-13T00:35:52.120Z,13.73
2019-01-13T00:38:32.228Z,11.57
2019-01-13T00:43:58.015Z,17.03
2019-01-13T00:49:26.813Z,16.03
2019-01-13T00:52:06.673Z,14.30
2019-01-13T00:54:46.686Z,14.07
2019-01-13T00:57:26.607Z,16.50
2019-01-13T01:00:06.657Z,13.93
2019-01-13T01:02:46.795Z,13.27
2019-01-13T01:05:26.935Z,15.20
2019-01-13T01:08:06.909Z,17.20
2019-01-13T01:10:46.896Z,13.80
2019-01-13T01:16:13.247Z,14.03
2019-01-13T01:21:35.966Z,16.77
2019-01-13T01:24:16.974Z,14.33
2019-01-13T01:26:56.889Z,13.37
2019-01-13T01:29:36.849Z,12.53
2019-01-13T01:32:16.941Z,12.67
2019-01-13T01:34:56.820Z,13.53
2019-01-13T01:37:36.745Z,14.50
2019-01-13T01:40:17.900Z,14.03
2019-01-13T01:43:01.395Z,13.27
2019-01-13T01:48:25.955Z,16.17
2019-01-13T01:51:06.209Z,12.50
2019-01-13T01:53:46.458Z,12.90
2019-01-13T01:59:15.513Z,11.93
2019-01-13T02:01:55.484Z,10.80
2019-01-13T02:04:35.444Z,12.97
2019-01-13T02:10:01.118Z,12.90
2019-01-13T02:12:41.326Z,12.00
2019-01-13T02:15:50.776Z,10.40
2019-01-13T02:18:37.802Z,12.23
2019-01-13T02:21:17.385Z,12.13
2019-01-13T02:23:57.539Z,10.53
2019-01-13T02:26:37.747Z,11.40
2019-01-13T02:32:00.477Z,11.83
2019-01-13T02:34:40.493Z,12.83
2019-01-13T02:37:20.557Z,11.17
2019-01-13T02:40:00.585Z,12.37
2019-01-13T02:42:40.488Z,11.73
2019-01-13T02:45:20.484Z,11.37
2019-01-13T02:48:00.533Z,12.27
2019-01-13T02:50:40.650Z,14.73
2019-01-13T02:53:20.635Z,12.03
2019-01-13T02:56:00.548Z,12.90
2019-01-13T02:58:40.615Z,13.73
2019-01-13T03:01:20.556Z,13.93
2019-01-13T03:04:00.841Z,13.70
2019-01-13T03:06:40.528Z,15.07
2019-01-13T03:09:20.495Z,14.67
2019-01-13T03:12:00.673Z,14.57
2019-01-13T03:14:41.105Z,15.33
2019-01-13T03:17:21.129Z,17.63
2019-01-13T03:20:00.792Z,15.30
2019-01-13T03:22:40.704Z,15.23
2019-01-13T03:25:20.827Z,16.90
2019-01-13T03:28:00.841Z,16.70
2019-01-13T03:30:40.992Z,16.60
2019-01-13T03:33:21.301Z,15.60
2019-01-13T03:36:01.373Z,16.53
2019-01-13T03:38:41.423Z,18.30
2019-01-13T03:41:21.631Z,16.27
2019-01-13T03:44:01.652Z,14.97
2019-01-13T03:46:41.531Z,14.90
2019-01-13T03:52:09.990Z,14.73
2019-01-13T03:54:49.540Z,14.70
2019-01-13T03:57:29.745Z,18.93
2019-01-13T04:00:10.174Z,14.57
2019-01-13T04:02:50.613Z,14.50
2019-01-13T04:05:31.131Z,13.17
2019-01-13T04:08:11.439Z,14.13
2019-01-13T04:10:51.148Z,13.20
2019-01-13T04:13:31.303Z,15.10
2019-01-13T04:16:11.361Z,12.33
2019-01-13T04:18:51.384Z,14.87
2019-01-13T04:21:31.483Z,11.90
2019-01-13T04:24:15.060Z,12.23
2019-01-13T04:26:54.736Z,10.47
2019-01-13T04:29:34.918Z,10.63
2019-01-13T04:32:15.051Z,10.20
2019-01-13T04:34:55.147Z,10.47
2019-01-13T04:37:36.481Z,11.07
2019-01-13T04:40:16.466Z,11.17
2019-01-13T04:42:56.403Z,11.57
2019-01-13T04:45:36.444Z,10.67
2019-01-13T04:48:16.537Z,12.23
2019-01-13T04:50:56.690Z,11.30
2019-01-13T04:56:19.642Z,10.87
2019-01-13T04:58:59.324Z,14.87
2019-01-13T05:01:39.685Z,12.47
2019-01-13T05:07:03.855Z,14.53
2019-01-13T05:12:29.899Z,14.63
2019-01-13T05:15:09.905Z,15.90
2019-01-13T05:17:50.188Z,16.27
2019-01-13T05:20:30.270Z,18.03
2019-01-13T05:23:10.610Z,18.03
2019-01-13T05:25:50.707Z,16.83
2019-01-13T05:28:30.789Z,20.33
2019-01-13T05:31:10.703Z,19.03
2019-01-13T05:33:50.680Z,23.97
2019-01-13T05:36:30.729Z,20.80
2019-01-13T05:41:56.576Z,23.40
2019-01-13T05:44:24.194Z,21.97
2019-01-13T05:47:11.215Z,18.50
2019-01-13T05:49:58.286Z,17.47
2019-01-13T05:52:39.234Z,22.13
2019-01-13T05:55:19.629Z,18.70
2019-01-13T05:57:59.702Z,20.63
2019-01-13T06:00:41.051Z,21.13
2019-01-13T06:03:21.866Z,14.27
2019-01-13T06:06:01.504Z,16.47
2019-01-13T06:08:41.630Z,20.93
2019-01-13T06:11:21.602Z,16.33
2019-01-13T06:14:02.199Z,18.53
2019-01-13T06:16:42.145Z,12.93
2019-01-13T06:19:25.640Z,14.00
2019-01-13T06:24:49.451Z,11.90
2019-01-13T06:30:15.373Z,17.73
2019-01-13T06:32:55.523Z,14.43
2019-01-13T06:35:37.050Z,14.53
2019-01-13T06:38:16.675Z,15.90
2019-01-13T06:40:56.635Z,12.17
2019-01-13T06:43:36.451Z,14.30
2019-01-13T06:46:16.533Z,11.30
2019-01-13T06:48:58.000Z,14.43
2019-01-13T06:51:38.014Z,12.20
2019-01-13T06:54:18.120Z,13.97
2019-01-13T06:56:58.202Z,9.17
2019-01-13T06:59:38.243Z,11.30
2019-01-13T07:02:18.332Z,9.50
2019-01-13T07:07:47.296Z,11.77
2019-01-13T07:13:10.964Z,8.30
2019-01-13T07:15:51.062Z,10.40
2019-01-13T07:18:31.077Z,10.33
2019-01-13T07:21:10.860Z,13.03
2019-01-13T07:23:50.873Z,7.73
2019-01-13T07:26:30.704Z,11.17
2019-01-13T07:29:10.680Z,11.50
2019-01-13T07:31:50.911Z,10.67
2019-01-13T07:34:31.233Z,10.93
2019-01-13T07:37:11.667Z,10.87
2019-01-13T07:39:51.927Z,12.97
2019-01-13T07:42:32.174Z,8.43
2019-01-13T07:45:12.295Z,10.40
2019-01-13T07:47:52.553Z,13.67
2019-01-13T07:50:32.554Z,10.33
2019-01-13T07:53:13.642Z,10.93
2019-01-13T07:55:55.052Z,12.47
2019-01-13T07:58:36.029Z,14.13
2019-01-13T08:01:15.910Z,10.93
2019-01-13T08:03:55.770Z,10.17
2019-01-13T08:06:36.343Z,10.17
2019-01-13T08:09:16.940Z,11.43
2019-01-13T08:11:57.000Z,9.80
2019-01-13T08:14:36.830Z,10.73
2019-01-13T08:17:17.000Z,12.00
2019-01-13T08:19:56.868Z,11.83
2019-01-13T08:22:36.908Z,11.77
2019-01-13T08:25:05.950Z,12.27
2019-01-13T08:27:53.039Z,12.60
2019-01-13T08:30:40.048Z,10.27
2019-01-13T08:33:19.721Z,10.37
2019-01-13T08:35:59.911Z,7.83
2019-01-13T08:38:39.962Z,10.50
2019-01-13T08:41:19.786Z,10.20
2019-01-13T08:43:59.882Z,11.00
2019-01-13T08:49:22.902Z,7.13
2019-01-13T08:52:03.135Z,11.37
2019-01-13T08:54:43.310Z,10.53
2019-01-13T08:57:23.415Z,9.97
2019-01-13T09:02:51.493Z,10.60
2019-01-13T09:08:17.438Z,9.77
2019-01-13T09:10:57.769Z,8.17
2019-01-13T09:13:37.909Z,9.57
2019-01-13T09:16:18.192Z,12.10
2019-01-13T09:18:58.743Z,9.30
2019-01-13T09:21:38.842Z,8.50
2019-01-13T09:24:09.708Z,9.93
2019-01-13T09:26:56.727Z,9.30
2019-01-13T09:29:42.410Z,8.03
2019-01-13T09:40:35.997Z,10.60
2019-01-13T09:43:15.980Z,9.77
2019-01-13T09:45:57.403Z,8.50
2019-01-13T09:48:37.930Z,10.03
2019-01-13T09:56:50.206Z,6.33
2019-01-13T10:02:19.794Z,8.57
2019-01-13T10:05:00.164Z,8.47
2019-01-13T10:07:40.049Z,5.43
2019-01-13T10:10:19.949Z,5.77
2019-01-13T10:12:59.738Z,4.30
2019-01-13T10:15:39.891Z,5.33
2019-01-13T10:21:05.982Z,7.00
2019-01-13T10:23:45.915Z,6.70
2019-01-13T10:26:25.953Z,5.57
2019-01-13T10:31:42.342Z,7.80
2019-01-13T10:34:29.390Z,13.53
2019-01-13T10:37:16.451Z,8.47
2019-01-13T10:39:56.939Z,4.27
2019-01-13T10:42:37.070Z,11.10
2019-01-13T10:48:06.508Z,10.37
2019-01-13T10:50:34.427Z,6.57
2019-01-13T10:56:18.065Z,8.73
2019-01-13T10:59:05.107Z,8.50
2019-01-13T11:01:45.239Z,7.70
2019-01-13T11:07:08.119Z,10.50
2019-01-13T11:09:48.167Z,8.90
2019-01-13T11:12:28.046Z,6.97
2019-01-13T11:17:53.986Z,6.83
2019-01-13T11:20:33.995Z,10.93
2019-01-13T11:23:14.298Z,7.77
2019-01-13T11:25:54.754Z,6.77
2019-01-13T11:28:35.014Z,9.90
2019-01-13T11:31:15.016Z,8.83
2019-01-13T11:33:54.919Z,9.07
2019-01-13T11:36:34.947Z,8.17
2019-01-13T11:42:05.001Z,7.53
2019-01-13T11:44:48.366Z,7.43
2019-01-13T11:47:28.871Z,10.33
2019-01-13T11:49:56.553Z,6.70
2019-01-13T11:52:43.639Z,9.20
2019-01-13T11:55:23.641Z,8.53
2019-01-13T12:06:28.579Z,6.17
2019-01-13T12:09:13.807Z,10.67
2019-01-13T12:14:46.543Z,8.20
2019-01-13T12:45:13.359Z,7.00
2019-01-13T12:47:57.967Z,8.10
2019-01-13T12:50:44.447Z,9.30
2019-01-13T12:53:29.003Z,7.00
2019-01-13T12:56:15.563Z,7.37
2019-01-13T12:59:01.707Z,6.90
2019-01-13T13:01:46.364Z,7.00
2019-01-13T13:12:50.683Z,7.57
2019-01-13T13:15:36.670Z,8.03
2019-01-13T13:18:22.754Z,6.67
2019-01-13T13:21:07.361Z,7.10
2019-01-13T13:23:53.901Z,8.10
2019-01-13T13:27:01.783Z,8.13
2019-01-13T13:29:30.187Z,8.83
2019-01-13T13:32:17.524Z,9.30
2019-01-13T13:37:47.439Z,9.97
2019-01-13T13:46:03.145Z,12.67
2019-01-13T13:51:36.059Z,12.33
2019-01-13T13:59:57.829Z,10.70
2019-01-13T14:05:53.247Z,11.87
2019-01-13T14:11:29.228Z,13.20
2019-01-13T14:14:16.379Z,15.37
2019-01-13T14:17:00.932Z,13.87
2019-01-13T14:22:33.412Z,13.83
2019-01-13T14:31:03.331Z,10.33
2019-01-13T14:33:33.639Z,12.23
2019-01-13T14:39:06.725Z,9.63
2019-01-13T14:47:25.966Z,11.97
2019-01-13T15:12:19.494Z,10.57
2019-01-13T15:23:24.476Z,8.70
2019-01-13T15:28:57.694Z,6.23
2019-01-13T15:31:38.090Z,8.63
2019-01-13T15:39:37.838Z,9.50
2019-01-13T15:42:25.062Z,8.83
2019-01-13T15:47:54.574Z,7.10
2019-01-13T15:50:41.465Z,7.40
2019-01-13T15:53:27.544Z,10.50
2019-01-13T15:56:12.062Z,10.17
2019-01-13T16:04:25.406Z,8.97
2019-01-13T16:07:06.088Z,5.40
2019-01-13T16:12:35.399Z,5.80
2019-01-13T16:15:15.024Z,7.27
2019-01-13T16:17:56.346Z,9.90
2019-01-13T16:20:36.927Z,6.70
2019-01-13T16:28:49.276Z,6.87
2019-01-13T16:34:21.494Z,8.03
2019-01-13T16:39:45.655Z,6.90
2019-01-13T16:42:26.087Z,6.27
2019-01-13T16:45:06.173Z,7.63
2019-01-13T16:47:52.709Z,4.13
2019-01-13T16:50:38.723Z,7.00
2019-01-13T16:53:20.240Z,5.70
2019-01-13T17:01:57.368Z,7.20
2019-01-13T17:04:20.709Z,7.23
2019-01-13T17:09:46.794Z,5.90
2019-01-13T17:15:22.210Z,5.53
2019-01-13T17:18:08.499Z,8.47
2019-01-13T17:20:48.162Z,7.03
2019-01-13T17:26:11.288Z,9.63
2019-01-13T17:28:39.041Z,5.27
2019-01-13T17:31:26.123Z,11.10
2019-01-13T17:34:13.135Z,7.90
2019-01-13T17:36:56.928Z,6.07
2019-01-13T17:53:32.924Z,7.70
2019-01-13T17:59:05.948Z,7.50
2019-01-13T18:04:22.990Z,7.10
2019-01-13T18:07:10.084Z,7.97
2019-01-13T18:09:37.821Z,7.27
2019-01-13T18:12:24.986Z,9.10
2019-01-13T18:14:52.712Z,6.80
2019-01-13T18:17:40.090Z,6.70
2019-01-13T18:20:20.563Z,7.27
2019-01-13T18:23:00.755Z,7.10
2019-01-13T18:25:40.533Z,8.57
2019-01-13T18:28:20.494Z,9.90
2019-01-13T18:31:02.883Z,5.83
2019-01-13T18:36:29.197Z,6.60
2019-01-13T18:39:15.518Z,6.57
2019-01-13T18:42:00.121Z,7.37
2019-01-13T18:50:18.639Z,8.77
2019-01-13T18:52:58.317Z,6.70
2019-01-13T18:58:27.615Z,5.33
2019-01-13T19:01:07.296Z,4.90
2019-01-13T19:03:47.349Z,2.70
2019-01-13T19:12:00.485Z,3.57
2019-01-13T19:17:27.446Z,7.43
2019-01-13T19:28:26.178Z,2.60
2019-01-13T19:33:53.419Z,7.83
2019-01-13T19:36:33.446Z,7.40
2019-01-13T19:39:13.370Z,6.83
2019-01-13T19:44:42.831Z,5.53
2019-01-13T19:47:23.501Z,7.37
2019-01-13T19:50:03.725Z,9.93
2019-01-13T19:58:21.585Z,5.10
2019-01-13T20:01:01.244Z,4.73
2019-01-13T20:03:41.074Z,4.90
2019-01-13T20:06:21.242Z,7.17
2019-01-13T20:09:04.143Z,5.53
2019-01-13T20:11:44.343Z,5.13
2019-01-13T20:14:24.273Z,6.63
2019-01-13T20:17:04.711Z,6.93
2019-01-13T20:19:44.730Z,6.13
2019-01-13T20:22:24.845Z,5.87
2019-01-13T20:27:52.811Z,5.97
2019-01-13T20:30:33.199Z,6.77
2019-01-13T20:33:13.211Z,8.33
2019-01-13T20:35:54.299Z,6.43
2019-01-13T20:38:34.623Z,6.70
2019-01-13T20:44:07.650Z,8.43
2019-01-13T20:49:40.209Z,6.27
2019-01-13T20:52:20.844Z,9.00
2019-01-13T20:55:02.004Z,6.80
2019-01-13T20:57:29.688Z,5.73
2019-01-13T21:00:18.108Z,6.73
2019-01-13T21:02:57.754Z,7.80
2019-01-13T21:26:16.488Z,10.00
2019-01-13T21:35:07.708Z,7.77
2019-01-13T21:41:12.535Z,8.30
2019-01-13T21:46:33.683Z,12.53
2019-01-13T22:00:31.915Z,10.20
2019-01-13T22:03:15.516Z,13.53
2019-01-13T22:11:31.121Z,7.10
2019-01-13T22:19:47.058Z,12.40
2019-01-13T22:25:19.348Z,16.63
2019-01-13T22:30:49.392Z,14.13
2019-01-13T22:39:07.735Z,9.77
2019-01-13T22:44:40.660Z,11.33
2019-01-13T22:50:10.891Z,13.93
2019-01-13T22:55:43.612Z,14.97
2019-01-13T22:58:29.655Z,13.80
2019-01-13T23:01:15.777Z,11.37
2019-01-13T23:04:01.774Z,10.67
2019-01-13T23:06:46.384Z,15.03
2019-01-13T23:17:53.578Z,16.63
2019-01-13T23:20:39.667Z,12.73
2019-01-13T23:23:25.741Z,16.10
2019-01-13T23:26:31.070Z,11.93
2019-01-13T23:29:07.326Z,14.43
